Time;durP1;ratioP1;P1;durP2;ratioP2;P2;SDS_P1;SDS_P2;PMS_P1;PMS_P2;Temp;Humidity;BMP_temperature;BMP_pressure;BME280_temperature;BME280_humidity;BME280_pressure;Samples;Min_cycle;Max_cycle;Signal;HPM_P1;HPM_P2
2022/05/12 00:01:12;;;;;;;17.60;8.18;;;;;;;;;;4917303;29;20040;-73
2022/05/12 00:03:46;;;;;;;15.15;8.95;;;;;;;;;;4917514;29;20547;-73
2022/05/12 00:06:38;;;;;;;13.07;9.23;;;;;;;;;;4917162;29;20060;-73
2022/05/12 00:12:24;;;;;;;15.80;9.75;;;;;;;;;;4915932;29;20060;-73
2022/05/12 00:15:18;;;;;;;16.05;9.48;;;;;;;;;;4917116;29;20056;-73
2022/05/12 00:18:10;;;;;;;14.60;10.35;;;;;;;;;;4917537;29;20043;-73
2022/05/12 00:20:39;;;;;;;16.77;9.80;;;;;;;;;;4916266;29;20413;-73
2022/05/12 00:23:16;;;;;;;17.58;9.50;;;;;;;;;;4917429;29;20055;-72
2022/05/12 00:25:52;;;;;;;17.92;10.07;;;;;;;;;;4917211;29;20048;-72
2022/05/12 00:28:22;;;;;;;17.50;10.32;;;;;;;;;;4916817;29;20050;-73
2022/05/12 00:30:52;;;;;;;22.30;10.57;;;;;;;;;;4917152;29;20096;-72
2022/05/12 00:33:22;;;;;;;26.85;12.00;;;;;;;;;;4917282;29;20048;-72
2022/05/12 00:35:50;;;;;;;23.75;12.10;;;;;;;;;;4916870;29;20194;-72
2022/05/12 00:38:18;;;;;;;20.52;12.35;;;;;;;;;;4917336;29;20376;-72
2022/05/12 00:40:55;;;;;;;25.15;12.52;;;;;;;;;;4917040;29;20440;-72
2022/05/12 00:43:55;;;;;;;22.65;13.77;;;;;;;;;;4916743;29;20059;-72
2022/05/12 00:46:31;;;;;;;17.63;11.95;;;;;;;;;;4906165;29;20143;-72
2022/05/12 00:49:00;;;;;;;20.83;12.98;;;;;;;;;;4917009;29;20048;-73
2022/05/12 00:51:38;;;;;;;20.33;13.85;;;;;;;;;;4917231;29;20121;-73
2022/05/12 00:54:13;;;;;;;18.90;11.70;;;;;;;;;;4915949;29;20410;-73
2022/05/12 00:57:05;;;;;;;23.10;12.35;;;;;;;;;;4917270;29;20079;-72
2022/05/12 00:59:39;;;;;;;21.42;11.40;;;;;;;;;;4916866;29;20377;-72
2022/05/12 01:02:14;;;;;;;24.95;14.30;;;;;;;;;;4915899;29;20048;-73
2022/05/12 01:05:08;;;;;;;19.33;11.73;;;;;;;;;;4916347;29;20044;-73
2022/05/12 01:07:39;;;;;;;20.73;12.32;;;;;;;;;;4918270;29;20099;-72
2022/05/12 01:10:16;;;;;;;19.77;13.57;;;;;;;;;;4920381;29;20105;-72
2022/05/12 01:12:45;;;;;;;16.88;11.60;;;;;;;;;;4920457;29;20100;-72
2022/05/12 01:15:19;;;;;;;20.30;12.98;;;;;;;;;;4920375;29;20047;-70
2022/05/12 01:18:23;;;;;;;21.75;12.90;;;;;;;;;;4919821;29;20044;-70
2022/05/12 01:20:52;;;;;;;18.77;12.10;;;;;;;;;;4909122;29;20507;-71
2022/05/12 01:23:23;;;;;;;12.90;9.27;;;;;;;;;;4920626;29;20048;-72
2022/05/12 01:26:03;;;;;;;19.15;12.38;;;;;;;;;;4920228;29;20558;-72
2022/05/12 01:28:35;;;;;;;22.42;13.95;;;;;;;;;;4920245;29;20048;-72
2022/05/12 01:31:04;;;;;;;17.55;10.60;;;;;;;;;;4919980;29;20036;-73
2022/05/12 01:33:33;;;;;;;16.15;10.40;;;;;;;;;;4920165;29;20040;-73
2022/05/12 01:36:07;;;;;;;17.15;11.30;;;;;;;;;;4920195;29;20092;-72
2022/05/12 01:38:38;;;;;;;19.20;10.43;;;;;;;;;;4920256;29;20071;-72
2022/05/12 01:41:11;;;;;;;18.02;11.55;;;;;;;;;;4920158;29;20036;-72
2022/05/12 01:43:41;;;;;;;19.75;11.15;;;;;;;;;;4919409;29;20490;-72
2022/05/12 01:46:10;;;;;;;19.92;11.23;;;;;;;;;;4919775;29;20048;-72
2022/05/12 01:48:38;;;;;;;21.67;12.55;;;;;;;;;;4919993;29;20072;-73
2022/05/12 01:51:09;;;;;;;19.20;11.35;;;;;;;;;;4920134;29;20079;-72
2022/05/12 01:53:39;;;;;;;19.95;11.82;;;;;;;;;;4919345;29;20060;-72
2022/05/12 01:56:08;;;;;;;19.10;10.98;;;;;;;;;;4919671;29;20174;-72
2022/05/12 01:58:38;;;;;;;23.35;10.68;;;;;;;;;;4919398;29;20118;-73
2022/05/12 02:01:11;;;;;;;17.27;10.68;;;;;;;;;;4919582;29;20044;-72
2022/05/12 02:03:42;;;;;;;18.55;11.40;;;;;;;;;;4919410;29;20415;-72
2022/05/12 02:06:12;;;;;;;19.38;11.65;;;;;;;;;;4919355;29;20507;-72
2022/05/12 02:08:42;;;;;;;23.60;13.98;;;;;;;;;;4919700;29;20059;-72
2022/05/12 02:11:09;;;;;;;18.88;12.10;;;;;;;;;;4919457;29;20570;-72
2022/05/12 02:13:44;;;;;;;18.63;12.05;;;;;;;;;;4918925;29;20060;-73
2022/05/12 02:16:12;;;;;;;21.20;12.80;;;;;;;;;;4919126;29;20048;-73
2022/05/12 02:18:40;;;;;;;26.90;13.98;;;;;;;;;;4919083;29;20459;-72
2022/05/12 02:21:07;;;;;;;28.02;14.20;;;;;;;;;;4919228;29;20052;-72
2022/05/12 02:23:37;;;;;;;28.48;15.68;;;;;;;;;;4919177;29;20044;-72
2022/05/12 02:26:07;;;;;;;28.65;14.50;;;;;;;;;;4919133;29;20066;-72
2022/05/12 02:28:40;;;;;;;24.55;15.43;;;;;;;;;;4919244;29;20554;-72
2022/05/12 02:31:13;;;;;;;25.77;14.15;;;;;;;;;;4919401;29;20052;-72
2022/05/12 02:33:43;;;;;;;24.38;13.70;;;;;;;;;;4919206;29;20044;-72
2022/05/12 02:36:11;;;;;;;24.90;14.45;;;;;;;;;;4919213;29;20075;-73
2022/05/12 02:38:41;;;;;;;21.52;12.80;;;;;;;;;;4918828;29;20036;-73
2022/05/12 02:41:14;;;;;;;24.63;13.20;;;;;;;;;;4919280;29;20074;-73
2022/05/12 02:43:42;;;;;;;18.73;12.48;;;;;;;;;;4918702;29;20119;-73
2022/05/12 02:46:35;;;;;;;22.10;12.10;;;;;;;;;;4918743;29;20051;-72
2022/05/12 02:49:06;;;;;;;16.73;11.05;;;;;;;;;;4919100;29;20048;-72
2022/05/12 02:51:35;;;;;;;17.10;10.20;;;;;;;;;;4918533;29;20488;-72
2022/05/12 02:54:05;;;;;;;16.40;9.90;;;;;;;;;;4918531;29;20047;-73
2022/05/12 02:56:38;;;;;;;19.30;9.82;;;;;;;;;;4918475;29;20518;-73
2022/05/12 02:59:09;;;;;;;15.55;9.23;;;;;;;;;;4918315;29;20108;-73
2022/05/12 03:01:40;;;;;;;21.33;13.77;;;;;;;;;;4918728;29;20449;-72
2022/05/12 03:04:15;;;;;;;31.88;21.13;;;;;;;;;;4918249;29;20444;-72
2022/05/12 03:06:43;;;;;;;;;;;;;;;;;;4918817;29;20076;-72
2022/05/12 03:09:35;;;;;;;16.92;12.00;;;;;;;;;;4918275;29;19930;-72
2022/05/12 03:12:04;;;;;;;18.88;11.45;;;;;;;;;;4917925;29;20052;-73
2022/05/12 03:14:34;;;;;;;17.92;11.43;;;;;;;;;;4901385;29;20083;-72
2022/05/12 03:17:02;;;;;;;31.88;14.68;;;;;;;;;;4918428;29;20078;-72
2022/05/12 03:19:31;;;;;;;26.42;15.45;;;;;;;;;;4936588;29;20051;-72
2022/05/12 03:22:00;;;;;;;23.48;11.00;;;;;;;;;;4936686;29;20058;-72
2022/05/12 03:24:29;;;;;;;17.95;11.45;;;;;;;;;;4937411;29;20435;-72
2022/05/12 03:27:00;;;;;;;20.88;12.55;;;;;;;;;;4936865;29;20039;-73
2022/05/12 03:29:29;;;;;;;26.55;15.98;;;;;;;;;;4936420;29;20051;-72
2022/05/12 03:31:57;;;;;;;23.65;12.30;;;;;;;;;;4936587;29;20074;-72
2022/05/12 03:34:25;;;;;;;36.22;22.33;;;;;;;;;;4936459;29;20059;-72
2022/05/12 03:36:53;;;;;;;20.75;12.00;;;;;;;;;;4936669;29;20047;-72
2022/05/12 03:39:21;;;;;;;31.23;18.00;;;;;;;;;;4935950;29;20036;-72
2022/05/12 03:41:53;;;;;;;31.30;19.20;;;;;;;;;;4936612;29;20050;-73
2022/05/12 03:47:12;;;;;;;36.15;22.52;;;;;;;;;;4936846;29;20099;-72
2022/05/12 03:49:41;;;;;;;31.27;16.73;;;;;;;;;;4936504;29;20052;-72
2022/05/12 03:52:12;;;;;;;20.85;12.10;;;;;;;;;;4936155;29;20040;-72
2022/05/12 03:54:40;;;;;;;21.63;11.18;;;;;;;;;;4936608;29;20071;-72
2022/05/12 03:57:13;;;;;;;21.15;10.45;;;;;;;;;;4936205;29;20372;-72
2022/05/12 03:59:41;;;;;;;17.17;10.63;;;;;;;;;;4936798;29;20047;-72
2022/05/12 04:02:13;;;;;;;24.05;14.07;;;;;;;;;;4936113;29;20044;-73
2022/05/12 04:04:48;;;;;;;19.95;10.00;;;;;;;;;;4936617;29;20487;-72
2022/05/12 04:07:22;;;;;;;17.60;9.98;;;;;;;;;;4936154;29;20052;-72
2022/05/12 04:09:51;;;;;;;16.83;9.52;;;;;;;;;;4936392;29;20103;-72
2022/05/12 04:12:19;;;;;;;22.02;11.75;;;;;;;;;;4935865;29;20514;-72
2022/05/12 04:14:53;;;;;;;15.30;10.73;;;;;;;;;;4936480;29;20118;-72
2022/05/12 04:17:22;;;;;;;14.52;10.13;;;;;;;;;;4936109;29;20048;-73
2022/05/12 04:19:52;;;;;;;19.80;11.82;;;;;;;;;;4935524;29;20044;-72
2022/05/12 04:22:21;;;;;;;16.23;11.07;;;;;;;;;;4936448;29;20399;-72
2022/05/12 04:24:51;;;;;;;16.80;12.95;;;;;;;;;;4936201;29;20098;-72
2022/05/12 04:27:18;;;;;;;16.42;10.93;;;;;;;;;;4934778;29;20048;-72
2022/05/12 04:29:48;;;;;;;24.40;12.07;;;;;;;;;;4934263;29;20406;-73
2022/05/12 04:32:15;;;;;;;19.77;11.25;;;;;;;;;;4935516;29;20048;-72
2022/05/12 04:37:33;;;;;;;14.50;8.32;;;;;;;;;;4935554;29;20040;-72
2022/05/12 04:40:10;;;;;;;13.90;8.90;;;;;;;;;;4935607;29;20074;-71
2022/05/12 04:42:38;;;;;;;17.75;8.40;;;;;;;;;;4938705;29;20131;-71
2022/05/12 04:45:07;;;;;;;19.45;9.75;;;;;;;;;;4939801;29;20048;-71
2022/05/12 04:47:36;;;;;;;14.32;8.13;;;;;;;;;;4938723;29;20048;-71
2022/05/12 04:50:05;;;;;;;11.80;8.68;;;;;;;;;;4938930;29;20102;-72
2022/05/12 04:52:32;;;;;;;13.38;7.75;;;;;;;;;;4938836;29;20090;-72
2022/05/12 04:55:02;;;;;;;11.40;7.20;;;;;;;;;;4939248;29;20135;-72
2022/05/12 04:57:35;;;;;;;9.20;6.60;;;;;;;;;;4939515;29;20047;-73
2022/05/12 05:00:03;;;;;;;15.13;8.68;;;;;;;;;;4939187;29;20090;-72
2022/05/12 05:02:37;;;;;;;16.23;9.27;;;;;;;;;;4940028;29;20051;-72
2022/05/12 05:05:07;;;;;;;23.73;14.82;;;;;;;;;;4939764;29;20043;-72
2022/05/12 05:07:41;;;;;;;13.15;7.20;;;;;;;;;;4939544;29;20486;-73
2022/05/12 05:10:09;;;;;;;8.70;7.30;;;;;;;;;;4939537;29;20403;-72
2022/05/12 05:12:45;;;;;;;13.80;6.72;;;;;;;;;;4939876;29;20055;-72
2022/05/12 05:15:14;;;;;;;44.28;30.23;;;;;;;;;;4939474;29;20562;-72
2022/05/12 05:17:45;;;;;;;20.80;14.90;;;;;;;;;;4939154;29;20032;-73
2022/05/12 05:20:16;;;;;;;12.32;7.70;;;;;;;;;;4938379;29;20612;-72
2022/05/12 05:22:46;;;;;;;14.23;9.20;;;;;;;;;;4939536;29;20411;-72
2022/05/12 05:25:14;;;;;;;11.02;5.30;;;;;;;;;;4939269;29;20054;-72
2022/05/12 05:27:42;;;;;;;9.95;6.22;;;;;;;;;;4939463;29;20128;-72
2022/05/12 05:30:11;;;;;;;7.72;6.05;;;;;;;;;;4939158;29;20051;-72
2022/05/12 05:32:40;;;;;;;7.93;5.50;;;;;;;;;;4939094;29;20486;-72
2022/05/12 05:35:16;;;;;;;9.05;6.07;;;;;;;;;;4939388;29;20082;-72
2022/05/12 05:37:45;;;;;;;8.60;5.13;;;;;;;;;;4938902;29;20052;-73
2022/05/12 05:40:14;;;;;;;6.82;4.97;;;;;;;;;;4939069;29;20035;-72
2022/05/12 05:42:48;;;;;;;7.45;5.88;;;;;;;;;;4939122;29;20044;-73
2022/05/12 05:45:17;;;;;;;8.20;6.05;;;;;;;;;;4938828;29;20095;-73
2022/05/12 05:47:49;;;;;;;10.70;6.10;;;;;;;;;;4938896;29;20131;-73
2022/05/12 05:50:26;;;;;;;40.78;30.80;;;;;;;;;;4939059;29;20487;-73
2022/05/12 05:55:42;;;;;;;6.97;5.03;;;;;;;;;;4938617;29;20446;-73
2022/05/12 05:58:11;;;;;;;8.38;4.70;;;;;;;;;;4939067;29;20459;-70
2022/05/12 06:00:46;;;;;;;10.52;5.78;;;;;;;;;;4938929;29;20051;-70
2022/05/12 06:03:15;;;;;;;8.38;4.25;;;;;;;;;;4938848;29;20538;-71
2022/05/12 06:05:46;;;;;;;13.10;5.03;;;;;;;;;;4938342;29;20079;-71
2022/05/12 06:08:15;;;;;;;8.05;3.70;;;;;;;;;;4939244;29;20080;-71
2022/05/12 06:11:09;;;;;;;6.18;4.03;;;;;;;;;;4938428;29;20125;-71
2022/05/12 06:13:42;;;;;;;7.43;4.55;;;;;;;;;;4938421;29;20052;-70
2022/05/12 06:16:15;;;;;;;6.47;4.03;;;;;;;;;;4938374;29;20048;-70
2022/05/12 06:18:43;;;;;;;12.85;9.18;;;;;;;;;;4938436;29;20079;-71
2022/05/12 06:21:12;;;;;;;11.05;8.00;;;;;;;;;;4938149;29;20062;-70
2022/05/12 06:23:48;;;;;;;9.90;5.60;;;;;;;;;;4938181;29;20074;-70
2022/05/12 06:26:15;;;;;;;7.15;5.38;;;;;;;;;;4938388;29;20067;-71
2022/05/12 06:28:45;;;;;;;23.42;5.30;;;;;;;;;;4938186;29;20063;-72
2022/05/12 06:31:24;;;;;;;8.25;5.28;;;;;;;;;;4938156;29;20051;-72
2022/05/12 06:33:58;;;;;;;10.60;7.53;;;;;;;;;;4938294;29;20051;-72
2022/05/12 06:36:29;;;;;;;10.70;4.18;;;;;;;;;;4938347;29;20067;-71
2022/05/12 06:38:59;;;;;;;12.70;9.02;;;;;;;;;;4937898;29;20048;-72
2022/05/12 06:41:30;;;;;;;7.60;4.50;;;;;;;;;;4938890;29;20054;-71
2022/05/12 06:44:00;;;;;;;9.90;5.75;;;;;;;;;;4938413;29;20043;-71
2022/05/12 06:46:52;;;;;;;8.10;4.38;;;;;;;;;;4938000;29;20442;-71
2022/05/12 06:49:22;;;;;;;7.50;5.20;;;;;;;;;;4937569;29;20095;-71
2022/05/12 06:52:14;;;;;;;7.47;4.20;;;;;;;;;;4937677;29;20047;-71
2022/05/12 06:54:43;;;;;;;12.02;4.75;;;;;;;;;;4938357;29;20541;-71
2022/05/12 06:57:35;;;;;;;9.07;4.45;;;;;;;;;;4937755;29;20039;-71
2022/05/12 07:00:08;;;;;;;10.30;4.95;;;;;;;;;;4937447;29;20067;-71
2022/05/12 07:02:45;;;;;;;5.97;4.32;;;;;;;;;;4937502;29;20047;-71
2022/05/12 07:05:14;;;;;;;9.43;4.65;;;;;;;;;;4936903;29;20051;-71
2022/05/12 07:08:07;;;;;;;11.85;7.72;;;;;;;;;;4937399;29;20040;-71
2022/05/12 07:10:59;;;;;;;16.63;9.00;;;;;;;;;;4937593;29;20115;-71
2022/05/12 07:13:52;;;;;;;7.72;4.13;;;;;;;;;;4937405;29;20075;-71
2022/05/12 07:16:23;;;;;;;6.65;3.20;;;;;;;;;;4937823;29;20062;-71
2022/05/12 07:18:53;;;;;;;7.97;4.28;;;;;;;;;;4937247;29;20099;-71
2022/05/12 07:27:09;;;;;;;8.02;4.60;;;;;;;;;;4937298;29;20122;-71
2022/05/12 07:29:37;;;;;;;9.05;4.10;;;;;;;;;;4937474;29;20048;-72
2022/05/12 07:32:13;;;;;;;7.53;4.07;;;;;;;;;;4936775;29;20052;-72
2022/05/12 07:34:42;;;;;;;5.78;3.70;;;;;;;;;;4936703;29;20103;-72
2022/05/12 07:37:14;;;;;;;7.07;3.78;;;;;;;;;;4936564;29;20051;-72
2022/05/12 07:39:41;;;;;;;4.65;3.67;;;;;;;;;;4936747;29;20083;-71
2022/05/12 07:42:21;;;;;;;11.13;3.90;;;;;;;;;;4936517;29;20058;-71
2022/05/12 07:44:49;;;;;;;11.07;6.75;;;;;;;;;;4936923;29;20063;-71
2022/05/12 07:47:22;;;;;;;6.72;4.13;;;;;;;;;;4936923;29;20044;-71
2022/05/12 07:49:50;;;;;;;6.53;4.43;;;;;;;;;;4936555;29;20138;-72
2022/05/12 07:52:21;;;;;;;7.55;3.60;;;;;;;;;;4936404;29;20407;-71
2022/05/12 07:54:54;;;;;;;4.25;3.53;;;;;;;;;;4936655;29;20048;-71
2022/05/12 07:57:21;;;;;;;6.50;3.92;;;;;;;;;;4936180;29;20071;-71
2022/05/12 07:59:53;;;;;;;21.65;5.15;;;;;;;;;;4936109;29;20517;-71
2022/05/12 08:02:24;;;;;;;6.38;3.78;;;;;;;;;;4936696;29;20039;-71
2022/05/12 08:04:53;;;;;;;7.95;5.55;;;;;;;;;;4936327;29;20099;-71
2022/05/12 08:07:22;;;;;;;7.18;4.32;;;;;;;;;;4936473;29;20050;-71
2022/05/12 08:09:57;;;;;;;6.03;4.80;;;;;;;;;;4936720;29;20398;-70
2022/05/12 08:12:26;;;;;;;9.05;4.75;;;;;;;;;;4936336;29;20052;-71
2022/05/12 08:14:57;;;;;;;8.90;5.53;;;;;;;;;;4936538;29;20047;-71
2022/05/12 08:17:28;;;;;;;10.02;5.75;;;;;;;;;;4936044;29;20147;-71
2022/05/12 08:19:56;;;;;;;11.63;8.10;;;;;;;;;;4935468;29;20055;-71
2022/05/12 08:22:25;;;;;;;7.32;5.85;;;;;;;;;;4936180;29;20055;-72
2022/05/12 08:24:58;;;;;;;7.90;4.25;;;;;;;;;;4936053;29;20046;-72
2022/05/12 08:27:26;;;;;;;7.18;3.80;;;;;;;;;;4919369;29;20451;-72
2022/05/12 08:29:55;;;;;;;10.75;6.60;;;;;;;;;;4936250;29;20042;-72
2022/05/12 08:32:29;;;;;;;5.97;3.28;;;;;;;;;;4936315;29;20123;-72
2022/05/12 08:34:58;;;;;;;9.48;4.53;;;;;;;;;;4936640;29;20048;-72
2022/05/12 08:37:28;;;;;;;14.43;4.03;;;;;;;;;;4935605;29;20050;-71
2022/05/12 08:40:00;;;;;;;8.82;5.15;;;;;;;;;;4936139;29;20067;-71
2022/05/12 08:42:31;;;;;;;7.38;3.83;;;;;;;;;;4936103;29;20047;-71
2022/05/12 08:44:59;;;;;;;3.63;3.00;;;;;;;;;;4918709;29;20051;-71
2022/05/12 08:47:34;;;;;;;5.22;3.33;;;;;;;;;;4936149;29;20039;-71
2022/05/12 08:50:04;;;;;;;6.28;3.28;;;;;;;;;;4936079;29;20043;-71
2022/05/12 08:52:39;;;;;;;6.32;3.58;;;;;;;;;;4935767;29;20402;-71
2022/05/12 08:55:25;;;;;;;8.23;3.85;;;;;;;;;;4935603;29;20535;-71
2022/05/12 08:58:01;;;;;;;13.10;3.88;;;;;;;;;;4935970;29;20553;-71
2022/05/12 09:00:33;;;;;;;7.97;4.00;;;;;;;;;;4935791;29;20550;-71
2022/05/12 09:03:07;;;;;;;5.32;3.50;;;;;;;;;;4935685;29;20052;-71
2022/05/12 09:05:40;;;;;;;10.60;3.70;;;;;;;;;;4935551;29;20052;-71
2022/05/12 09:08:25;;;;;;;7.65;3.30;;;;;;;;;;4935906;29;20103;-71
2022/05/12 09:10:53;;;;;;;;;;;;;;;;;;4936082;29;20070;-71
2022/05/12 09:13:40;;;;;;;7.50;3.08;;;;;;;;;;4935398;29;19934;-71
2022/05/12 09:16:27;;;;;;;11.88;4.85;;;;;;;;;;4935704;29;20044;-71
2022/05/12 09:18:58;;;;;;;6.78;3.50;;;;;;;;;;4936444;29;20514;-71
2022/05/12 09:21:35;;;;;;;9.38;4.07;;;;;;;;;;4935425;29;20063;-71
2022/05/12 09:24:29;;;;;;;7.32;3.50;;;;;;;;;;4935281;29;20070;-71
2022/05/12 09:27:21;;;;;;;9.57;3.20;;;;;;;;;;4935606;29;20487;-71
2022/05/12 09:29:53;;;;;;;7.25;4.93;;;;;;;;;;4939176;29;20051;-71
2022/05/12 09:32:23;;;;;;;6.15;3.60;;;;;;;;;;4939324;29;20047;-72
2022/05/12 09:35:03;;;;;;;6.20;2.80;;;;;;;;;;4939190;29;20067;-71
2022/05/12 09:37:33;;;;;;;5.00;3.00;;;;;;;;;;4938900;29;20055;-71
2022/05/12 09:40:19;;;;;;;7.38;3.30;;;;;;;;;;4938915;29;20043;-71
2022/05/12 09:42:56;;;;;;;16.55;4.03;;;;;;;;;;4939024;29;20039;-71
2022/05/12 09:45:34;;;;;;;4.50;2.80;;;;;;;;;;4939046;29;20132;-71
2022/05/12 09:48:34;;;;;;;6.63;3.40;;;;;;;;;;4938732;29;20051;-71
2022/05/12 09:51:21;;;;;;;7.50;3.50;;;;;;;;;;4887932;29;20577;-71
2022/05/12 09:54:17;;;;;;;5.97;3.40;;;;;;;;;;4938783;29;20055;-71
2022/05/12 09:56:55;;;;;;;4.70;2.97;;;;;;;;;;4903431;29;20495;-71
2022/05/12 09:59:33;;;;;;;7.13;3.47;;;;;;;;;;4938762;29;20047;-71
2022/05/12 10:02:03;;;;;;;7.40;4.45;;;;;;;;;;4938768;29;20111;-71
2022/05/12 10:10:17;;;;;;;6.22;2.90;;;;;;;;;;4938637;29;20052;-71
2022/05/12 10:13:11;;;;;;;7.18;5.07;;;;;;;;;;4938324;29;20040;-70
2022/05/12 10:16:03;;;;;;;9.88;2.65;;;;;;;;;;4938597;29;20054;-71
2022/05/12 10:18:40;;;;;;;4.13;3.00;;;;;;;;;;4938411;29;20400;-70
2022/05/12 10:21:14;;;;;;;6.07;2.60;;;;;;;;;;4937745;29;20492;-71
2022/05/12 10:24:08;;;;;;;11.07;3.22;;;;;;;;;;4937882;29;20048;-71
2022/05/12 10:27:00;;;;;;;6.57;2.83;;;;;;;;;;4938228;29;20040;-71
2022/05/12 10:29:41;;;;;;;3.80;2.72;;;;;;;;;;4938149;29;20067;-71
2022/05/12 10:32:36;;;;;;;18.38;4.03;;;;;;;;;;4938349;29;20055;-71
2022/05/12 10:35:19;;;;;;;6.00;2.58;;;;;;;;;;4938836;29;20087;-71
2022/05/12 10:37:49;;;;;;;7.03;3.03;;;;;;;;;;4938218;29;20434;-71
2022/05/12 10:40:35;;;;;;;5.20;3.45;;;;;;;;;;4938059;29;20040;-71
2022/05/12 10:43:21;;;;;;;12.88;6.43;;;;;;;;;;4937781;29;20039;-71
2022/05/12 10:46:05;;;;;;;7.22;3.90;;;;;;;;;;4937953;29;20071;-70
2022/05/12 10:48:34;;;;;;;4.85;3.13;;;;;;;;;;4938121;29;20051;-71
2022/05/12 10:51:05;;;;;;;8.30;4.43;;;;;;;;;;4937529;29;20538;-71
2022/05/12 10:53:41;;;;;;;5.85;2.83;;;;;;;;;;4937691;29;20181;-71
2022/05/12 10:56:23;;;;;;;21.38;4.85;;;;;;;;;;4920621;29;20059;-70
2022/05/12 10:58:55;;;;;;;6.20;4.07;;;;;;;;;;4937791;29;20051;-71
2022/05/12 11:01:34;;;;;;;8.35;3.83;;;;;;;;;;4937467;29;20071;-71
2022/05/12 11:04:03;;;;;;;5.85;2.35;;;;;;;;;;4937692;29;20134;-71
2022/05/12 11:06:41;;;;;;;4.85;2.90;;;;;;;;;;4937721;29;20035;-71
2022/05/12 11:09:15;;;;;;;6.43;3.53;;;;;;;;;;4937362;29;20498;-70
2022/05/12 11:11:47;;;;;;;6.07;3.70;;;;;;;;;;4937299;29;20503;-71
2022/05/12 11:14:39;;;;;;;7.05;2.50;;;;;;;;;;4937284;29;20044;-71
2022/05/12 11:17:10;;;;;;;5.43;3.55;;;;;;;;;;4937285;29;20062;-70
2022/05/12 11:19:44;;;;;;;5.90;3.45;;;;;;;;;;4936987;29;20107;-70
2022/05/12 11:22:43;;;;;;;3.92;2.08;;;;;;;;;;4936990;29;20103;-71
2022/05/12 11:25:19;;;;;;;6.97;2.83;;;;;;;;;;4917783;29;20091;-71
2022/05/12 11:29:41;;;;;;;5.30;2.60;;;;;;;;;;4937040;29;20039;-71
2022/05/12 11:30:57;;;;;;;4.00;2.90;;;;;;;;;;4937147;29;20082;-70
2022/05/12 11:33:49;;;;;;;5.05;3.08;;;;;;;;;;4936886;29;20498;-71
2022/05/12 11:36:20;;;;;;;9.65;4.53;;;;;;;;;;4937198;29;20092;-70
2022/05/12 11:38:54;;;;;;;5.68;2.83;;;;;;;;;;4936750;29;20129;-70
2022/05/12 11:41:22;;;;;;;13.90;3.38;;;;;;;;;;4937048;29;20044;-70
2022/05/12 11:46:51;;;;;;;5.28;2.60;;;;;;;;;;4936838;29;20505;-71
2022/05/12 11:49:23;;;;;;;5.93;3.13;;;;;;;;;;4937057;29;20491;-70
2022/05/12 11:52:03;;;;;;;3.15;2.33;;;;;;;;;;4936419;29;20051;-72
2022/05/12 11:54:39;;;;;;;5.13;2.90;;;;;;;;;;4936679;29;20103;-71
2022/05/12 11:57:27;;;;;;;3.80;2.20;;;;;;;;;;4936286;29;20047;-71
2022/05/12 11:59:58;;;;;;;4.75;2.50;;;;;;;;;;4936265;29;20063;-71
2022/05/12 12:02:29;;;;;;;4.35;2.50;;;;;;;;;;4936511;29;20099;-71
2022/05/12 12:05:05;;;;;;;5.32;2.70;;;;;;;;;;4936913;29;20127;-71
2022/05/12 12:07:35;;;;;;;5.93;3.67;;;;;;;;;;4936202;29;20054;-71
2022/05/12 12:10:05;;;;;;;3.70;2.53;;;;;;;;;;4936004;29;20414;-71
2022/05/12 12:12:45;;;;;;;14.10;3.85;;;;;;;;;;4936116;29;20074;-71
2022/05/12 12:15:26;;;;;;;9.30;3.40;;;;;;;;;;4936135;29;20514;-70
2022/05/12 12:17:55;;;;;;;4.22;2.67;;;;;;;;;;4935756;29;20115;-70
2022/05/12 12:20:26;;;;;;;7.85;2.53;;;;;;;;;;4935302;29;20066;-71
2022/05/12 12:22:56;;;;;;;4.93;2.55;;;;;;;;;;4936570;29;20123;-71
2022/05/12 12:25:45;;;;;;;5.50;2.90;;;;;;;;;;4935792;29;20048;-72
2022/05/12 12:28:14;;;;;;;6.05;3.05;;;;;;;;;;4923148;29;20463;-72
2022/05/12 12:30:49;;;;;;;4.00;2.38;;;;;;;;;;4916784;29;20049;-72
2022/05/12 12:33:18;;;;;;;;;;;;;;;;;;4917402;29;20048;-72
2022/05/12 12:35:53;;;;;;;6.32;3.08;;;;;;;;;;4917068;29;19930;-72
2022/05/12 12:38:43;;;;;;;4.80;2.55;;;;;;;;;;4917154;29;20475;-73
2022/05/12 12:41:12;;;;;;;4.75;2.78;;;;;;;;;;4916732;29;20044;-72
2022/05/12 12:43:42;;;;;;;6.88;2.88;;;;;;;;;;4916480;29;20045;-72
2022/05/12 12:46:21;;;;;;;5.80;2.63;;;;;;;;;;4916784;29;20076;-72
2022/05/12 12:48:52;;;;;;;4.40;2.70;;;;;;;;;;4917005;29;20052;-72
2022/05/12 12:51:33;;;;;;;7.93;2.97;;;;;;;;;;4916896;29;20143;-72
2022/05/12 12:57:28;;;;;;;8.25;3.13;;;;;;;;;;4916574;29;20048;-72
2022/05/12 13:00:02;;;;;;;3.97;2.55;;;;;;;;;;4915193;29;20041;-72
2022/05/12 13:02:40;;;;;;;5.40;2.72;;;;;;;;;;4917860;29;20072;-72
2022/05/12 13:05:10;;;;;;;8.65;5.18;;;;;;;;;;4928155;29;20062;-72
2022/05/12 13:07:43;;;;;;;7.28;3.30;;;;;;;;;;4939515;29;20122;-72
2022/05/12 13:10:17;;;;;;;7.00;3.22;;;;;;;;;;4940008;29;20435;-72
2022/05/12 13:12:46;;;;;;;;;;;;;;;;;;4938506;29;20103;-72
2022/05/12 13:15:18;;;;;;;6.15;4.97;;;;;;;;;;4939207;29;19923;-72
2022/05/12 13:17:50;;;;;;;6.38;3.20;;;;;;;;;;4938931;29;20048;-72
2022/05/12 13:20:41;;;;;;;6.15;3.58;;;;;;;;;;4938719;29;20123;-72
2022/05/12 13:23:29;;;;;;;11.05;4.95;;;;;;;;;;4938741;29;20044;-72
2022/05/12 13:26:01;;;;;;;17.20;13.90;;;;;;;;;;4939300;29;20052;-72
2022/05/12 13:28:32;;;;;;;29.50;22.58;;;;;;;;;;4939001;29;20376;-72
2022/05/12 13:31:20;;;;;;;17.48;11.90;;;;;;;;;;4939028;29;20055;-72
2022/05/12 13:33:56;;;;;;;9.25;5.93;;;;;;;;;;4939101;29;20047;-72
2022/05/12 13:36:28;;;;;;;9.77;6.38;;;;;;;;;;4938919;29;20082;-72
2022/05/12 13:38:57;;;;;;;8.32;4.53;;;;;;;;;;4938676;29;20047;-72
2022/05/12 13:41:30;;;;;;;9.13;4.07;;;;;;;;;;4938672;29;20488;-72
2022/05/12 13:44:24;;;;;;;6.80;4.60;;;;;;;;;;4938439;29;20043;-72
2022/05/12 13:46:53;;;;;;;13.00;3.50;;;;;;;;;;4934820;29;20051;-72
2022/05/12 13:49:33;;;;;;;12.52;5.70;;;;;;;;;;4937766;29;20074;-74
2022/05/12 13:52:15;;;;;;;7.18;3.47;;;;;;;;;;4936317;29;20499;-75
2022/05/12 13:55:01;;;;;;;4.65;2.85;;;;;;;;;;4938215;29;20051;-74
2022/05/12 13:57:46;;;;;;;5.22;3.17;;;;;;;;;;4938746;29;20047;-75
2022/05/12 14:00:13;;;;;;;7.53;3.17;;;;;;;;;;4938473;29;20102;-74
2022/05/12 14:02:50;;;;;;;7.00;4.22;;;;;;;;;;4937125;29;20278;-75
2022/05/12 14:05:31;;;;;;;10.02;3.42;;;;;;;;;;4938579;29;20557;-75
2022/05/12 14:08:26;;;;;;;13.50;3.38;;;;;;;;;;4938780;29;20473;-74
2022/05/12 14:11:02;;;;;;;5.18;2.45;;;;;;;;;;4938090;29;20450;-75
2022/05/12 14:19:57;;;;;;;8.57;3.03;;;;;;;;;;4925962;29;20140;-77
2022/05/12 14:22:28;;;;;;;4.03;2.40;;;;;;;;;;4922873;29;20047;-76
2022/05/12 14:24:56;;;;;;;5.45;2.75;;;;;;;;;;4930908;29;20447;-75
2022/05/12 14:27:28;;;;;;;6.13;2.30;;;;;;;;;;4937709;29;20050;-74
2022/05/12 14:30:01;;;;;;;5.50;2.67;;;;;;;;;;4938123;29;20071;-75
2022/05/12 14:32:35;;;;;;;4.25;2.63;;;;;;;;;;4938116;29;20150;-75
2022/05/12 14:35:07;;;;;;;17.98;3.47;;;;;;;;;;4937965;29;20047;-74
2022/05/12 14:37:35;;;;;;;8.90;2.80;;;;;;;;;;4937531;29;20140;-74
2022/05/12 14:40:08;;;;;;;6.55;3.00;;;;;;;;;;4937948;29;20086;-73
2022/05/12 14:42:36;;;;;;;5.03;3.22;;;;;;;;;;4937022;29;20040;-74
2022/05/12 14:45:05;;;;;;;5.43;3.40;;;;;;;;;;4937454;29;20095;-74
2022/05/12 14:47:36;;;;;;;7.57;3.05;;;;;;;;;;4937820;29;20042;-73
2022/05/12 14:50:05;;;;;;;3.70;2.97;;;;;;;;;;4937525;29;20506;-74
2022/05/12 14:52:35;;;;;;;5.47;3.15;;;;;;;;;;4937547;29;20570;-74
2022/05/12 14:55:09;;;;;;;10.68;8.07;;;;;;;;;;4937486;29;20058;-74
2022/05/12 14:57:36;;;;;;;3.50;2.83;;;;;;;;;;4937602;29;20074;-74
2022/05/12 15:00:08;;;;;;;4.47;3.60;;;;;;;;;;4937085;29;20399;-74
2022/05/12 15:02:42;;;;;;;10.05;4.60;;;;;;;;;;4937897;29;20102;-74
2022/05/12 15:05:11;;;;;;;9.48;2.83;;;;;;;;;;4937246;29;20043;-74
2022/05/12 15:08:04;;;;;;;7.65;4.95;;;;;;;;;;4937457;29;20040;-74
2022/05/12 15:10:31;;;;;;;9.20;3.60;;;;;;;;;;4937545;29;20114;-74
2022/05/12 15:13:27;;;;;;;6.80;2.70;;;;;;;;;;4936910;29;20075;-74
2022/05/12 15:15:59;;;;;;;3.92;2.50;;;;;;;;;;4937858;29;20399;-73
2022/05/12 15:18:29;;;;;;;9.75;2.50;;;;;;;;;;4936948;29;20083;-74
2022/05/12 15:20:56;;;;;;;5.47;3.40;;;;;;;;;;4936883;29;20052;-73
2022/05/12 15:23:25;;;;;;;4.47;2.60;;;;;;;;;;4937011;29;20398;-73
2022/05/12 15:26:03;;;;;;;5.20;3.00;;;;;;;;;;4936004;29;20055;-74
2022/05/12 15:28:32;;;;;;;10.05;3.42;;;;;;;;;;4936696;29;20099;-73
2022/05/12 15:31:00;;;;;;;6.45;3.63;;;;;;;;;;4936027;29;20098;-73
2022/05/12 15:33:29;;;;;;;5.70;2.92;;;;;;;;;;4937139;29;20043;-73
2022/05/12 15:35:59;;;;;;;3.80;3.03;;;;;;;;;;4937005;29;20103;-73
2022/05/12 15:38:28;;;;;;;17.40;3.78;;;;;;;;;;4936895;29;20131;-73
2022/05/12 15:40:58;;;;;;;4.25;2.60;;;;;;;;;;4936762;29;20094;-75
2022/05/12 15:43:27;;;;;;;5.05;3.03;;;;;;;;;;4936763;29;20044;-73
2022/05/12 15:45:56;;;;;;;5.68;3.20;;;;;;;;;;4936668;29;20047;-75
2022/05/12 15:48:25;;;;;;;6.00;3.40;;;;;;;;;;4936715;29;20047;-74
2022/05/12 15:50:54;;;;;;;6.15;4.25;;;;;;;;;;4936579;29;20110;-74